sensor_id;sensor_type;location;lat;lon;timestamp;temperature;humidity
3994;DHT22;2011;48.238;13.948;2023-04-16T00:02:00;7.00;99.90
3994;DHT22;2011;48.238;13.948;2023-04-16T00:04:27;7.00;99.90
3994;DHT22;2011;48.238;13.948;2023-04-16T00:06:54;6.90;99.90
3994;DHT22;2011;48.238;13.948;2023-04-16T00:09:22;6.90;99.90
3994;DHT22;2011;48.238;13.948;2023-04-16T00:11:49;7.00;99.90
3994;DHT22;2011;48.238;13.948;2023-04-16T00:14:16;6.90;99.90
3994;DHT22;2011;48.238;13.948;2023-04-16T00:16:43;6.90;99.90
3994;DHT22;2011;48.238;13.948;2023-04-16T00:19:10;7.00;99.90
3994;DHT22;2011;48.238;13.948;2023-04-16T00:21:37;7.00;99.90
3994;DHT22;2011;48.238;13.948;2023-04-16T00:24:04;6.90;99.90
3994;DHT22;2011;48.238;13.948;2023-04-16T00:26:32;7.00;99.90
3994;DHT22;2011;48.238;13.948;2023-04-16T00:29:00;7.00;99.90
3994;DHT22;2011;48.238;13.948;2023-04-16T00:31:27;7.00;99.90
3994;DHT22;2011;48.238;13.948;2023-04-16T00:33:54;7.00;99.90
3994;DHT22;2011;48.238;13.948;2023-04-16T00:36:22;7.00;99.90
3994;DHT22;2011;48.238;13.948;2023-04-16T00:38:49;7.00;99.90
3994;DHT22;2011;48.238;13.948;2023-04-16T00:41:16;7.00;99.90
3994;DHT22;2011;48.238;13.948;2023-04-16T00:43:44;7.00;99.90
3994;DHT22;2011;48.238;13.948;2023-04-16T00:46:11;7.00;99.90
3994;DHT22;2011;48.238;13.948;2023-04-16T00:48:39;6.90;99.90
3994;DHT22;2011;48.238;13.948;2023-04-16T00:51:07;6.90;99.90
3994;DHT22;2011;48.238;13.948;2023-04-16T00:53:35;6.90;99.90
3994;DHT22;2011;48.238;13.948;2023-04-16T00:56:03;6.90;99.90
3994;DHT22;2011;48.238;13.948;2023-04-16T00:58:31;6.90;99.90
3994;DHT22;2011;48.238;13.948;2023-04-16T01:01:00;6.90;99.90
3994;DHT22;2011;48.238;13.948;2023-04-16T01:03:33;6.90;99.90
3994;DHT22;2011;48.238;13.948;2023-04-16T01:06:03;6.90;99.90
3994;DHT22;2011;48.238;13.948;2023-04-16T01:08:30;6.90;99.90
3994;DHT22;2011;48.238;13.948;2023-04-16T01:10:56;6.90;99.90
3994;DHT22;2011;48.238;13.948;2023-04-16T01:13:23;6.90;99.90
3994;DHT22;2011;48.238;13.948;2023-04-16T01:15:51;6.90;99.90
3994;DHT22;2011;48.238;13.948;2023-04-16T01:18:20;6.90;99.90
3994;DHT22;2011;48.238;13.948;2023-04-16T01:20:48;7.00;99.90
3994;DHT22;2011;48.238;13.948;2023-04-16T01:23:16;7.00;99.90
3994;DHT22;2011;48.238;13.948;2023-04-16T01:25:44;7.00;99.90
3994;DHT22;2011;48.238;13.948;2023-04-16T01:28:11;7.00;99.90
3994;DHT22;2011;48.238;13.948;2023-04-16T01:30:37;7.00;99.90
3994;DHT22;2011;48.238;13.948;2023-04-16T01:33:04;7.10;99.90
3994;DHT22;2011;48.238;13.948;2023-04-16T01:35:32;7.10;99.90
3994;DHT22;2011;48.238;13.948;2023-04-16T01:38:00;7.10;99.90
3994;DHT22;2011;48.238;13.948;2023-04-16T01:40:28;7.20;99.90
3994;DHT22;2011;48.238;13.948;2023-04-16T01:42:55;7.20;99.90
3994;DHT22;2011;48.238;13.948;2023-04-16T01:45:22;7.10;99.90
3994;DHT22;2011;48.238;13.948;2023-04-16T01:47:49;7.20;99.90
3994;DHT22;2011;48.238;13.948;2023-04-16T01:50:16;7.20;99.90
3994;DHT22;2011;48.238;13.948;2023-04-16T01:52:43;7.10;99.90
3994;DHT22;2011;48.238;13.948;2023-04-16T01:55:11;7.10;99.90
3994;DHT22;2011;48.238;13.948;2023-04-16T01:57:38;7.10;99.90
3994;DHT22;2011;48.238;13.948;2023-04-16T02:00:07;7.10;99.90
3994;DHT22;2011;48.238;13.948;2023-04-16T02:02:34;7.10;99.90
3994;DHT22;2011;48.238;13.948;2023-04-16T02:05:01;7.10;99.90
3994;DHT22;2011;48.238;13.948;2023-04-16T02:07:28;7.10;99.90
3994;DHT22;2011;48.238;13.948;2023-04-16T02:09:56;7.10;99.90
3994;DHT22;2011;48.238;13.948;2023-04-16T02:12:25;7.10;99.90
3994;DHT22;2011;48.238;13.948;2023-04-16T02:14:52;7.10;99.90
3994;DHT22;2011;48.238;13.948;2023-04-16T02:17:18;7.10;99.90
3994;DHT22;2011;48.238;13.948;2023-04-16T02:19:45;7.10;99.90
3994;DHT22;2011;48.238;13.948;2023-04-16T02:22:12;7.10;99.90
3994;DHT22;2011;48.238;13.948;2023-04-16T02:24:39;7.10;99.90
3994;DHT22;2011;48.238;13.948;2023-04-16T02:27:06;7.10;99.90
3994;DHT22;2011;48.238;13.948;2023-04-16T02:29:35;7.10;99.90
3994;DHT22;2011;48.238;13.948;2023-04-16T02:32:02;7.10;99.90
3994;DHT22;2011;48.238;13.948;2023-04-16T02:34:29;7.10;99.90
3994;DHT22;2011;48.238;13.948;2023-04-16T02:36:55;7.10;99.90
3994;DHT22;2011;48.238;13.948;2023-04-16T02:39:23;7.00;99.90
3994;DHT22;2011;48.238;13.948;2023-04-16T02:41:50;7.00;99.90
3994;DHT22;2011;48.238;13.948;2023-04-16T02:44:17;6.90;99.90
3994;DHT22;2011;48.238;13.948;2023-04-16T02:46:46;6.90;99.90
3994;DHT22;2011;48.238;13.948;2023-04-16T02:49:12;6.80;99.90
3994;DHT22;2011;48.238;13.948;2023-04-16T02:51:39;6.80;99.90
3994;DHT22;2011;48.238;13.948;2023-04-16T02:54:06;6.70;99.90
3994;DHT22;2011;48.238;13.948;2023-04-16T02:56:33;6.70;99.90
3994;DHT22;2011;48.238;13.948;2023-04-16T02:59:00;6.70;99.90
3994;DHT22;2011;48.238;13.948;2023-04-16T03:01:27;6.70;99.90
3994;DHT22;2011;48.238;13.948;2023-04-16T03:03:55;6.80;99.90
3994;DHT22;2011;48.238;13.948;2023-04-16T03:06:22;6.80;99.90
3994;DHT22;2011;48.238;13.948;2023-04-16T03:08:49;6.80;99.90
3994;DHT22;2011;48.238;13.948;2023-04-16T03:11:16;6.80;99.90
3994;DHT22;2011;48.238;13.948;2023-04-16T03:13:44;6.80;99.90
3994;DHT22;2011;48.238;13.948;2023-04-16T03:16:11;6.70;99.90
3994;DHT22;2011;48.238;13.948;2023-04-16T03:18:38;6.70;99.90
3994;DHT22;2011;48.238;13.948;2023-04-16T03:21:06;6.70;99.90
3994;DHT22;2011;48.238;13.948;2023-04-16T03:23:33;6.70;99.90
3994;DHT22;2011;48.238;13.948;2023-04-16T03:26:00;6.70;99.90
3994;DHT22;2011;48.238;13.948;2023-04-16T03:28:27;6.80;99.90
3994;DHT22;2011;48.238;13.948;2023-04-16T03:30:54;6.80;99.90
3994;DHT22;2011;48.238;13.948;2023-04-16T03:33:20;6.80;99.90
3994;DHT22;2011;48.238;13.948;2023-04-16T03:35:54;6.90;99.90
3994;DHT22;2011;48.238;13.948;2023-04-16T03:38:23;6.90;99.90
3994;DHT22;2011;48.238;13.948;2023-04-16T03:40:51;6.90;99.90
3994;DHT22;2011;48.238;13.948;2023-04-16T03:43:18;6.90;99.90
3994;DHT22;2011;48.238;13.948;2023-04-16T03:45:45;6.90;99.90
3994;DHT22;2011;48.238;13.948;2023-04-16T03:48:12;6.90;99.90
3994;DHT22;2011;48.238;13.948;2023-04-16T03:50:39;6.90;99.90
3994;DHT22;2011;48.238;13.948;2023-04-16T03:53:06;7.00;99.90
3994;DHT22;2011;48.238;13.948;2023-04-16T03:55:35;7.00;99.90
3994;DHT22;2011;48.238;13.948;2023-04-16T03:58:02;7.00;99.90
3994;DHT22;2011;48.238;13.948;2023-04-16T04:00:29;7.00;99.90
3994;DHT22;2011;48.238;13.948;2023-04-16T04:02:56;7.10;99.90
3994;DHT22;2011;48.238;13.948;2023-04-16T04:05:23;7.10;99.90
3994;DHT22;2011;48.238;13.948;2023-04-16T04:07:51;7.10;99.90
3994;DHT22;2011;48.238;13.948;2023-04-16T04:10:18;7.00;99.90
3994;DHT22;2011;48.238;13.948;2023-04-16T04:12:46;7.00;99.90
3994;DHT22;2011;48.238;13.948;2023-04-16T04:15:13;7.00;99.90
3994;DHT22;2011;48.238;13.948;2023-04-16T04:17:40;7.00;99.90
3994;DHT22;2011;48.238;13.948;2023-04-16T04:20:08;7.00;99.90
3994;DHT22;2011;48.238;13.948;2023-04-16T04:22:35;7.00;99.90
3994;DHT22;2011;48.238;13.948;2023-04-16T04:25:02;7.00;99.90
3994;DHT22;2011;48.238;13.948;2023-04-16T04:27:28;7.00;99.90
3994;DHT22;2011;48.238;13.948;2023-04-16T04:29:57;7.00;99.90
3994;DHT22;2011;48.238;13.948;2023-04-16T04:32:24;7.00;99.90
3994;DHT22;2011;48.238;13.948;2023-04-16T04:34:51;7.10;99.90
3994;DHT22;2011;48.238;13.948;2023-04-16T04:37:18;7.00;99.90
3994;DHT22;2011;48.238;13.948;2023-04-16T04:39:45;7.00;99.90
3994;DHT22;2011;48.238;13.948;2023-04-16T04:42:12;7.00;99.90
3994;DHT22;2011;48.238;13.948;2023-04-16T04:44:39;7.00;99.90
3994;DHT22;2011;48.238;13.948;2023-04-16T04:47:08;7.00;99.90
3994;DHT22;2011;48.238;13.948;2023-04-16T04:49:35;6.90;99.90
3994;DHT22;2011;48.238;13.948;2023-04-16T04:52:02;6.90;99.90
3994;DHT22;2011;48.238;13.948;2023-04-16T04:54:30;6.80;99.90
3994;DHT22;2011;48.238;13.948;2023-04-16T04:56:57;6.90;99.90
3994;DHT22;2011;48.238;13.948;2023-04-16T04:59:24;6.90;99.90
3994;DHT22;2011;48.238;13.948;2023-04-16T05:01:51;6.80;99.90
3994;DHT22;2011;48.238;13.948;2023-04-16T05:04:19;6.80;99.90
3994;DHT22;2011;48.238;13.948;2023-04-16T05:06:46;6.80;99.90
3994;DHT22;2011;48.238;13.948;2023-04-16T05:09:13;6.80;99.90
3994;DHT22;2011;48.238;13.948;2023-04-16T05:11:41;6.80;99.90
3994;DHT22;2011;48.238;13.948;2023-04-16T05:14:08;6.80;99.90
3994;DHT22;2011;48.238;13.948;2023-04-16T05:16:35;6.80;99.90
3994;DHT22;2011;48.238;13.948;2023-04-16T05:19:02;6.80;99.90
3994;DHT22;2011;48.238;13.948;2023-04-16T05:21:31;6.80;99.90
3994;DHT22;2011;48.238;13.948;2023-04-16T05:23:58;6.90;99.90
3994;DHT22;2011;48.238;13.948;2023-04-16T05:26:24;6.90;99.90
3994;DHT22;2011;48.238;13.948;2023-04-16T05:28:51;6.90;99.90
3994;DHT22;2011;48.238;13.948;2023-04-16T05:31:19;6.90;99.90
3994;DHT22;2011;48.238;13.948;2023-04-16T05:33:46;6.90;99.90
3994;DHT22;2011;48.238;13.948;2023-04-16T05:36:13;6.90;99.90
3994;DHT22;2011;48.238;13.948;2023-04-16T05:38:41;6.90;99.90
3994;DHT22;2011;48.238;13.948;2023-04-16T05:41:08;6.90;99.90
3994;DHT22;2011;48.238;13.948;2023-04-16T05:43:35;6.90;99.90
3994;DHT22;2011;48.238;13.948;2023-04-16T05:46:02;7.00;99.90
3994;DHT22;2011;48.238;13.948;2023-04-16T05:48:29;7.00;99.90
3994;DHT22;2011;48.238;13.948;2023-04-16T05:50:56;7.00;99.90
3994;DHT22;2011;48.238;13.948;2023-04-16T05:53:23;7.00;99.90
3994;DHT22;2011;48.238;13.948;2023-04-16T05:55:52;7.10;99.90
3994;DHT22;2011;48.238;13.948;2023-04-16T05:58:19;7.10;99.90
3994;DHT22;2011;48.238;13.948;2023-04-16T06:00:46;7.10;99.90
3994;DHT22;2011;48.238;13.948;2023-04-16T06:03:13;7.20;99.90
3994;DHT22;2011;48.238;13.948;2023-04-16T06:05:41;7.20;99.90
3994;DHT22;2011;48.238;13.948;2023-04-16T06:08:08;7.30;99.90
3994;DHT22;2011;48.238;13.948;2023-04-16T06:10:35;7.30;99.90
3994;DHT22;2011;48.238;13.948;2023-04-16T06:13:04;7.30;99.90
3994;DHT22;2011;48.238;13.948;2023-04-16T06:15:30;7.30;99.90
3994;DHT22;2011;48.238;13.948;2023-04-16T06:17:58;7.20;99.90
3994;DHT22;2011;48.238;13.948;2023-04-16T06:20:25;7.20;99.90
3994;DHT22;2011;48.238;13.948;2023-04-16T06:22:52;7.30;99.90
3994;DHT22;2011;48.238;13.948;2023-04-16T06:25:19;7.30;99.90
3994;DHT22;2011;48.238;13.948;2023-04-16T06:27:46;7.30;99.90
3994;DHT22;2011;48.238;13.948;2023-04-16T06:30:15;7.20;99.90
3994;DHT22;2011;48.238;13.948;2023-04-16T06:32:42;7.30;99.90
3994;DHT22;2011;48.238;13.948;2023-04-16T06:35:11;7.30;99.90
3994;DHT22;2011;48.238;13.948;2023-04-16T06:37:38;7.30;99.90
3994;DHT22;2011;48.238;13.948;2023-04-16T06:40:05;7.30;99.90
3994;DHT22;2011;48.238;13.948;2023-04-16T06:42:32;7.30;99.90
3994;DHT22;2011;48.238;13.948;2023-04-16T06:44:59;7.30;99.90
3994;DHT22;2011;48.238;13.948;2023-04-16T06:47:28;7.40;99.90
3994;DHT22;2011;48.238;13.948;2023-04-16T06:49:55;7.40;99.90
3994;DHT22;2011;48.238;13.948;2023-04-16T06:52:22;7.40;99.90
3994;DHT22;2011;48.238;13.948;2023-04-16T06:54:48;7.40;99.90
3994;DHT22;2011;48.238;13.948;2023-04-16T06:57:15;7.40;99.90
3994;DHT22;2011;48.238;13.948;2023-04-16T06:59:42;7.40;99.90
3994;DHT22;2011;48.238;13.948;2023-04-16T07:02:09;7.40;99.90
3994;DHT22;2011;48.238;13.948;2023-04-16T07:04:37;7.40;99.90
3994;DHT22;2011;48.238;13.948;2023-04-16T07:07:04;7.50;99.90
3994;DHT22;2011;48.238;13.948;2023-04-16T07:09:31;7.50;99.90
3994;DHT22;2011;48.238;13.948;2023-04-16T07:11:58;7.50;99.90
3994;DHT22;2011;48.238;13.948;2023-04-16T07:14:25;7.50;99.90
3994;DHT22;2011;48.238;13.948;2023-04-16T07:16:52;7.50;99.90
3994;DHT22;2011;48.238;13.948;2023-04-16T07:19:19;7.50;99.90
3994;DHT22;2011;48.238;13.948;2023-04-16T07:21:47;7.60;99.90
3994;DHT22;2011;48.238;13.948;2023-04-16T07:24:14;7.60;99.90
3994;DHT22;2011;48.238;13.948;2023-04-16T07:26:41;7.60;99.90
3994;DHT22;2011;48.238;13.948;2023-04-16T07:29:08;7.70;99.90
3994;DHT22;2011;48.238;13.948;2023-04-16T07:31:34;7.80;99.90
3994;DHT22;2011;48.238;13.948;2023-04-16T07:34:01;7.90;99.90
3994;DHT22;2011;48.238;13.948;2023-04-16T07:36:28;8.10;99.90
3994;DHT22;2011;48.238;13.948;2023-04-16T07:38:57;8.10;99.90
3994;DHT22;2011;48.238;13.948;2023-04-16T07:41:24;8.00;99.90
3994;DHT22;2011;48.238;13.948;2023-04-16T07:43:51;8.00;99.90
3994;DHT22;2011;48.238;13.948;2023-04-16T07:46:18;8.00;99.90
3994;DHT22;2011;48.238;13.948;2023-04-16T07:48:45;8.10;99.90
3994;DHT22;2011;48.238;13.948;2023-04-16T07:51:12;8.10;99.90
3994;DHT22;2011;48.238;13.948;2023-04-16T07:53:39;8.00;99.90
3994;DHT22;2011;48.238;13.948;2023-04-16T07:56:08;8.00;99.90
3994;DHT22;2011;48.238;13.948;2023-04-16T07:58:35;8.00;99.90
3994;DHT22;2011;48.238;13.948;2023-04-16T08:01:02;8.00;99.90
3994;DHT22;2011;48.238;13.948;2023-04-16T08:03:29;8.00;99.90
3994;DHT22;2011;48.238;13.948;2023-04-16T08:05:56;8.00;99.90
3994;DHT22;2011;48.238;13.948;2023-04-16T08:08:23;7.90;99.90
3994;DHT22;2011;48.238;13.948;2023-04-16T08:10:50;8.00;99.90
3994;DHT22;2011;48.238;13.948;2023-04-16T08:13:21;8.00;99.90
3994;DHT22;2011;48.238;13.948;2023-04-16T08:15:48;8.00;99.90
3994;DHT22;2011;48.238;13.948;2023-04-16T08:18:15;8.00;99.90
3994;DHT22;2011;48.238;13.948;2023-04-16T08:20:42;8.10;99.90
3994;DHT22;2011;48.238;13.948;2023-04-16T08:23:09;8.10;99.90
3994;DHT22;2011;48.238;13.948;2023-04-16T08:25:36;8.10;99.90
3994;DHT22;2011;48.238;13.948;2023-04-16T08:28:03;8.10;99.90
3994;DHT22;2011;48.238;13.948;2023-04-16T08:30:32;8.10;99.90
3994;DHT22;2011;48.238;13.948;2023-04-16T08:32:59;8.00;99.90
3994;DHT22;2011;48.238;13.948;2023-04-16T08:35:26;8.10;99.90
3994;DHT22;2011;48.238;13.948;2023-04-16T08:37:53;8.20;99.90
3994;DHT22;2011;48.238;13.948;2023-04-16T08:40:23;8.30;99.90
3994;DHT22;2011;48.238;13.948;2023-04-16T08:42:52;8.30;99.90
3994;DHT22;2011;48.238;13.948;2023-04-16T08:45:20;8.40;99.90
3994;DHT22;2011;48.238;13.948;2023-04-16T08:47:49;8.50;99.90
3994;DHT22;2011;48.238;13.948;2023-04-16T08:50:21;8.50;99.90
3994;DHT22;2011;48.238;13.948;2023-04-16T08:52:50;8.50;99.90
3994;DHT22;2011;48.238;13.948;2023-04-16T08:55:19;8.50;99.90
3994;DHT22;2011;48.238;13.948;2023-04-16T08:57:49;8.50;99.90
3994;DHT22;2011;48.238;13.948;2023-04-16T09:00:18;8.60;99.90
3994;DHT22;2011;48.238;13.948;2023-04-16T09:02:45;8.60;99.90
3994;DHT22;2011;48.238;13.948;2023-04-16T09:05:15;8.60;99.90
3994;DHT22;2011;48.238;13.948;2023-04-16T09:07:44;8.50;99.90
3994;DHT22;2011;48.238;13.948;2023-04-16T09:10:11;8.50;99.90
3994;DHT22;2011;48.238;13.948;2023-04-16T09:12:40;8.60;99.90
3994;DHT22;2011;48.238;13.948;2023-04-16T09:15:10;8.60;99.90
3994;DHT22;2011;48.238;13.948;2023-04-16T09:17:37;8.70;99.90
3994;DHT22;2011;48.238;13.948;2023-04-16T09:20:05;8.70;99.90
3994;DHT22;2011;48.238;13.948;2023-04-16T09:22:35;8.70;99.90
3994;DHT22;2011;48.238;13.948;2023-04-16T09:25:02;8.80;99.90
3994;DHT22;2011;48.238;13.948;2023-04-16T09:27:29;8.80;99.90
3994;DHT22;2011;48.238;13.948;2023-04-16T09:29:57;8.80;99.90
3994;DHT22;2011;48.238;13.948;2023-04-16T09:32:25;8.80;99.90
3994;DHT22;2011;48.238;13.948;2023-04-16T09:34:55;8.80;99.90
3994;DHT22;2011;48.238;13.948;2023-04-16T09:37:22;8.90;99.90
3994;DHT22;2011;48.238;13.948;2023-04-16T09:39:55;8.90;99.90
3994;DHT22;2011;48.238;13.948;2023-04-16T09:42:24;9.00;99.90
3994;DHT22;2011;48.238;13.948;2023-04-16T09:44:52;9.00;99.90
3994;DHT22;2011;48.238;13.948;2023-04-16T09:47:20;9.10;99.90
3994;DHT22;2011;48.238;13.948;2023-04-16T09:49:47;9.10;99.90
3994;DHT22;2011;48.238;13.948;2023-04-16T09:52:15;9.10;99.90
3994;DHT22;2011;48.238;13.948;2023-04-16T09:54:46;9.20;99.90
3994;DHT22;2011;48.238;13.948;2023-04-16T09:57:17;9.20;99.90
3994;DHT22;2011;48.238;13.948;2023-04-16T09:59:45;9.30;99.90
3994;DHT22;2011;48.238;13.948;2023-04-16T10:02:12;9.30;99.90
3994;DHT22;2011;48.238;13.948;2023-04-16T10:04:45;9.30;99.90
3994;DHT22;2011;48.238;13.948;2023-04-16T10:07:12;9.30;99.90
3994;DHT22;2011;48.238;13.948;2023-04-16T10:09:39;9.20;99.90
3994;DHT22;2011;48.238;13.948;2023-04-16T10:12:07;9.30;99.90
3994;DHT22;2011;48.238;13.948;2023-04-16T10:14:35;9.30;99.90
3994;DHT22;2011;48.238;13.948;2023-04-16T10:17:03;9.20;99.90
3994;DHT22;2011;48.238;13.948;2023-04-16T10:19:31;9.30;99.90
3994;DHT22;2011;48.238;13.948;2023-04-16T10:21:58;9.30;99.90
3994;DHT22;2011;48.238;13.948;2023-04-16T10:24:26;9.40;99.90
3994;DHT22;2011;48.238;13.948;2023-04-16T10:26:54;9.30;99.90
3994;DHT22;2011;48.238;13.948;2023-04-16T10:29:21;9.30;99.90
3994;DHT22;2011;48.238;13.948;2023-04-16T10:31:51;9.40;99.90
3994;DHT22;2011;48.238;13.948;2023-04-16T10:34:20;9.50;99.90
3994;DHT22;2011;48.238;13.948;2023-04-16T10:36:48;9.60;99.90
3994;DHT22;2011;48.238;13.948;2023-04-16T10:39:17;9.60;99.90
3994;DHT22;2011;48.238;13.948;2023-04-16T10:41:45;9.70;99.90
3994;DHT22;2011;48.238;13.948;2023-04-16T10:44:12;9.70;99.90
3994;DHT22;2011;48.238;13.948;2023-04-16T10:46:40;9.80;99.90
3994;DHT22;2011;48.238;13.948;2023-04-16T10:49:16;9.80;99.90
3994;DHT22;2011;48.238;13.948;2023-04-16T10:51:52;9.70;99.90
3994;DHT22;2011;48.238;13.948;2023-04-16T10:54:22;9.80;99.90
3994;DHT22;2011;48.238;13.948;2023-04-16T10:56:51;9.80;99.90
3994;DHT22;2011;48.238;13.948;2023-04-16T10:59:19;9.80;99.90
3994;DHT22;2011;48.238;13.948;2023-04-16T11:01:49;9.70;99.90
3994;DHT22;2011;48.238;13.948;2023-04-16T11:04:28;9.80;99.90
3994;DHT22;2011;48.238;13.948;2023-04-16T11:07:05;9.70;99.90
3994;DHT22;2011;48.238;13.948;2023-04-16T11:09:50;9.70;99.90
3994;DHT22;2011;48.238;13.948;2023-04-16T11:12:19;9.70;99.90
3994;DHT22;2011;48.238;13.948;2023-04-16T11:14:47;9.60;99.90
3994;DHT22;2011;48.238;13.948;2023-04-16T11:17:14;9.60;99.90
3994;DHT22;2011;48.238;13.948;2023-04-16T11:19:43;9.60;99.90
3994;DHT22;2011;48.238;13.948;2023-04-16T11:22:12;9.60;99.90
3994;DHT22;2011;48.238;13.948;2023-04-16T11:24:41;9.70;99.90
3994;DHT22;2011;48.238;13.948;2023-04-16T11:27:10;9.70;99.90
3994;DHT22;2011;48.238;13.948;2023-04-16T11:29:37;9.80;99.90
3994;DHT22;2011;48.238;13.948;2023-04-16T11:32:04;9.80;99.90
3994;DHT22;2011;48.238;13.948;2023-04-16T11:34:31;9.80;99.90
3994;DHT22;2011;48.238;13.948;2023-04-16T11:37:00;9.70;99.90
3994;DHT22;2011;48.238;13.948;2023-04-16T11:39:27;9.80;99.90
3994;DHT22;2011;48.238;13.948;2023-04-16T11:41:54;9.70;99.90
3994;DHT22;2011;48.238;13.948;2023-04-16T11:44:22;9.80;99.90
3994;DHT22;2011;48.238;13.948;2023-04-16T11:46:50;9.80;99.90
3994;DHT22;2011;48.238;13.948;2023-04-16T11:49:26;9.90;99.90
3994;DHT22;2011;48.238;13.948;2023-04-16T11:51:53;9.90;99.90
3994;DHT22;2011;48.238;13.948;2023-04-16T11:54:23;9.90;99.90
3994;DHT22;2011;48.238;13.948;2023-04-16T11:56:51;9.90;99.90
3994;DHT22;2011;48.238;13.948;2023-04-16T11:59:20;9.80;99.90
3994;DHT22;2011;48.238;13.948;2023-04-16T12:01:50;9.80;99.90
3994;DHT22;2011;48.238;13.948;2023-04-16T12:04:19;9.80;99.90
3994;DHT22;2011;48.238;13.948;2023-04-16T12:07:06;9.70;99.90
3994;DHT22;2011;48.238;13.948;2023-04-16T12:09:35;9.70;99.90
3994;DHT22;2011;48.238;13.948;2023-04-16T12:12:03;9.70;99.90
3994;DHT22;2011;48.238;13.948;2023-04-16T12:14:30;9.70;99.90
3994;DHT22;2011;48.238;13.948;2023-04-16T12:17:18;9.70;99.90
3994;DHT22;2011;48.238;13.948;2023-04-16T12:19:49;9.80;99.90
3994;DHT22;2011;48.238;13.948;2023-04-16T12:22:16;9.80;99.90
3994;DHT22;2011;48.238;13.948;2023-04-16T12:24:44;9.80;99.90
3994;DHT22;2011;48.238;13.948;2023-04-16T12:27:11;9.90;99.90
3994;DHT22;2011;48.238;13.948;2023-04-16T12:29:38;9.90;99.90
3994;DHT22;2011;48.238;13.948;2023-04-16T12:32:20;10.00;99.90
3994;DHT22;2011;48.238;13.948;2023-04-16T12:34:50;10.00;99.90
3994;DHT22;2011;48.238;13.948;2023-04-16T12:37:17;10.00;99.90
3994;DHT22;2011;48.238;13.948;2023-04-16T12:39:45;10.00;99.90
3994;DHT22;2011;48.238;13.948;2023-04-16T12:42:12;10.00;99.90
3994;DHT22;2011;48.238;13.948;2023-04-16T12:44:39;10.00;99.90
3994;DHT22;2011;48.238;13.948;2023-04-16T12:47:06;10.10;99.90
3994;DHT22;2011;48.238;13.948;2023-04-16T12:49:34;10.10;99.90
3994;DHT22;2011;48.238;13.948;2023-04-16T12:52:01;10.20;99.90
3994;DHT22;2011;48.238;13.948;2023-04-16T12:54:28;10.20;99.90
3994;DHT22;2011;48.238;13.948;2023-04-16T12:56:57;10.30;99.90
3994;DHT22;2011;48.238;13.948;2023-04-16T12:59:24;10.40;99.90
3994;DHT22;2011;48.238;13.948;2023-04-16T13:01:50;10.30;99.90
3994;DHT22;2011;48.238;13.948;2023-04-16T13:04:17;10.40;99.90
3994;DHT22;2011;48.238;13.948;2023-04-16T13:06:44;10.40;99.90
3994;DHT22;2011;48.238;13.948;2023-04-16T13:09:11;10.40;99.90
3994;DHT22;2011;48.238;13.948;2023-04-16T13:11:38;10.40;99.90
3994;DHT22;2011;48.238;13.948;2023-04-16T13:14:07;10.40;99.90
3994;DHT22;2011;48.238;13.948;2023-04-16T13:16:33;10.40;99.90
3994;DHT22;2011;48.238;13.948;2023-04-16T13:19:03;10.40;99.90
3994;DHT22;2011;48.238;13.948;2023-04-16T13:21:30;10.50;99.90
3994;DHT22;2011;48.238;13.948;2023-04-16T13:23:57;10.50;99.90
3994;DHT22;2011;48.238;13.948;2023-04-16T13:26:24;10.50;99.90
3994;DHT22;2011;48.238;13.948;2023-04-16T13:28:51;10.50;99.90
3994;DHT22;2011;48.238;13.948;2023-04-16T13:31:20;10.60;99.90
3994;DHT22;2011;48.238;13.948;2023-04-16T13:33:47;10.60;99.90
3994;DHT22;2011;48.238;13.948;2023-04-16T13:36:14;10.70;99.90
3994;DHT22;2011;48.238;13.948;2023-04-16T13:38:41;10.80;99.90
3994;DHT22;2011;48.238;13.948;2023-04-16T13:41:08;10.90;99.90
3994;DHT22;2011;48.238;13.948;2023-04-16T13:43:36;10.90;99.90
3994;DHT22;2011;48.238;13.948;2023-04-16T13:46:03;11.10;99.90
3994;DHT22;2011;48.238;13.948;2023-04-16T13:48:31;11.30;99.90
3994;DHT22;2011;48.238;13.948;2023-04-16T13:50:58;11.50;99.90
3994;DHT22;2011;48.238;13.948;2023-04-16T13:53:25;11.70;99.90
3994;DHT22;2011;48.238;13.948;2023-04-16T13:55:52;11.90;99.90
3994;DHT22;2011;48.238;13.948;2023-04-16T13:58:19;12.00;99.90
3994;DHT22;2011;48.238;13.948;2023-04-16T14:00:46;12.10;99.90
3994;DHT22;2011;48.238;13.948;2023-04-16T14:03:13;12.20;99.90
3994;DHT22;2011;48.238;13.948;2023-04-16T14:05:42;12.60;99.90
3994;DHT22;2011;48.238;13.948;2023-04-16T14:08:09;13.00;99.90
3994;DHT22;2011;48.238;13.948;2023-04-16T14:10:37;13.10;99.90
3994;DHT22;2011;48.238;13.948;2023-04-16T14:13:04;13.10;99.90
3994;DHT22;2011;48.238;13.948;2023-04-16T14:15:31;13.10;99.90
3994;DHT22;2011;48.238;13.948;2023-04-16T14:17:58;13.10;99.90
3994;DHT22;2011;48.238;13.948;2023-04-16T14:20:25;13.30;99.90
3994;DHT22;2011;48.238;13.948;2023-04-16T14:22:54;13.50;99.90
3994;DHT22;2011;48.238;13.948;2023-04-16T14:25:22;13.50;99.90
3994;DHT22;2011;48.238;13.948;2023-04-16T14:27:49;13.20;99.90
3994;DHT22;2011;48.238;13.948;2023-04-16T14:30:17;13.00;99.90
3994;DHT22;2011;48.238;13.948;2023-04-16T14:32:44;12.90;99.90
3994;DHT22;2011;48.238;13.948;2023-04-16T14:35:11;12.80;99.90
3994;DHT22;2011;48.238;13.948;2023-04-16T14:37:38;12.70;99.90
3994;DHT22;2011;48.238;13.948;2023-04-16T14:40:08;12.60;99.90
3994;DHT22;2011;48.238;13.948;2023-04-16T14:42:37;12.60;99.90
3994;DHT22;2011;48.238;13.948;2023-04-16T14:45:05;12.60;99.90
3994;DHT22;2011;48.238;13.948;2023-04-16T14:47:34;12.40;99.90
3994;DHT22;2011;48.238;13.948;2023-04-16T14:50:11;12.30;99.90
3994;DHT22;2011;48.238;13.948;2023-04-16T14:52:38;12.10;99.90
3994;DHT22;2011;48.238;13.948;2023-04-16T14:55:07;12.00;99.90
3994;DHT22;2011;48.238;13.948;2023-04-16T14:57:34;11.80;99.90
3994;DHT22;2011;48.238;13.948;2023-04-16T15:00:04;11.60;99.90
3994;DHT22;2011;48.238;13.948;2023-04-16T15:02:34;11.40;99.90
3994;DHT22;2011;48.238;13.948;2023-04-16T15:05:01;11.40;99.90
3994;DHT22;2011;48.238;13.948;2023-04-16T15:07:28;11.30;99.90
3994;DHT22;2011;48.238;13.948;2023-04-16T15:09:56;11.40;99.90
3994;DHT22;2011;48.238;13.948;2023-04-16T15:12:24;11.40;99.90
3994;DHT22;2011;48.238;13.948;2023-04-16T15:14:52;11.30;99.90
3994;DHT22;2011;48.238;13.948;2023-04-16T15:17:19;11.30;99.90
3994;DHT22;2011;48.238;13.948;2023-04-16T15:19:46;11.30;99.90
3994;DHT22;2011;48.238;13.948;2023-04-16T15:22:15;11.30;99.90
3994;DHT22;2011;48.238;13.948;2023-04-16T15:24:42;11.30;99.90
3994;DHT22;2011;48.238;13.948;2023-04-16T15:27:10;11.30;99.90
3994;DHT22;2011;48.238;13.948;2023-04-16T15:29:40;11.30;99.90
3994;DHT22;2011;48.238;13.948;2023-04-16T15:32:08;11.30;99.90
3994;DHT22;2011;48.238;13.948;2023-04-16T15:34:35;11.30;99.90
3994;DHT22;2011;48.238;13.948;2023-04-16T15:37:02;11.30;99.90
3994;DHT22;2011;48.238;13.948;2023-04-16T15:39:30;11.30;99.90
3994;DHT22;2011;48.238;13.948;2023-04-16T15:41:57;11.30;99.90
3994;DHT22;2011;48.238;13.948;2023-04-16T15:44:24;11.30;99.90
3994;DHT22;2011;48.238;13.948;2023-04-16T15:46:53;11.30;99.90
3994;DHT22;2011;48.238;13.948;2023-04-16T15:49:20;11.30;99.90
3994;DHT22;2011;48.238;13.948;2023-04-16T15:51:48;11.30;99.90
3994;DHT22;2011;48.238;13.948;2023-04-16T15:54:15;11.30;99.90
3994;DHT22;2011;48.238;13.948;2023-04-16T15:56:42;11.30;99.90
3994;DHT22;2011;48.238;13.948;2023-04-16T15:59:10;11.20;99.90
3994;DHT22;2011;48.238;13.948;2023-04-16T16:01:37;11.10;99.90